Time;durP1;ratioP1;P1;durP2;ratioP2;P2;SDS_P1;SDS_P2;PMS_P1;PMS_P2;Temp;Humidity;BMP_temperature;BMP_pressure;BME280_temperature;BME280_humidity;BME280_pressure;Samples;Min_cycle;Max_cycle;Signal;HPM_P1;HPM_P2
2022/09/26 00:01:35;;;;;;;3.30;1.80;;;17.70;99.90;;;;;;4991767;28;20189;-67
2022/09/26 00:04:18;;;;;;;6.70;2.20;;;17.70;99.90;;;;;;5006062;28;20298;-67
2022/09/26 00:06:45;;;;;;;3.37;1.83;;;17.60;99.90;;;;;;5006706;28;20189;-66
2022/09/26 00:09:13;;;;;;;4.43;2.07;;;17.60;99.90;;;;;;5010858;28;20227;-66
2022/09/26 00:11:40;;;;;;;3.13;1.87;;;17.60;99.90;;;;;;4991021;28;20200;-67
2022/09/26 00:14:13;;;;;;;3.90;2.07;;;17.70;99.90;;;;;;4994305;28;20503;-67
2022/09/26 00:16:41;;;;;;;3.73;2.20;;;17.70;99.90;;;;;;4978040;28;20367;-67
2022/09/26 00:19:08;;;;;;;4.70;1.90;;;17.70;99.90;;;;;;5012899;28;20201;-68
2022/09/26 00:21:36;;;;;;;3.87;2.23;;;17.60;99.90;;;;;;5005287;28;20287;-67
2022/09/26 00:24:04;;;;;;;3.23;2.13;;;17.60;99.90;;;;;;4978509;28;20600;-67
2022/09/26 00:26:34;;;;;;;4.60;2.00;;;17.60;99.90;;;;;;4999994;28;20180;-66
2022/09/26 00:29:12;;;;;;;4.17;1.70;;;17.60;99.90;;;;;;5003318;28;20188;-67
2022/09/26 00:31:43;;;;;;;3.87;1.70;;;17.60;99.90;;;;;;5005783;28;20271;-67
2022/09/26 00:34:18;;;;;;;4.17;2.00;;;17.60;99.90;;;;;;4999552;28;20181;-67
2022/09/26 00:36:44;;;;;;;3.63;2.07;;;17.60;99.90;;;;;;5003184;28;20287;-67
2022/09/26 00:39:14;;;;;;;6.90;2.13;;;17.60;99.90;;;;;;5001114;28;20196;-67
2022/09/26 00:41:40;;;;;;;3.13;1.70;;;17.60;99.90;;;;;;5000685;28;20247;-67
2022/09/26 00:44:38;;;;;;;2.93;2.00;;;17.60;99.90;;;;;;5009703;28;20217;-67
2022/09/26 00:47:11;;;;;;;3.50;2.33;;;17.60;99.90;;;;;;5006528;28;20186;-67
2022/09/26 00:49:44;;;;;;;5.57;2.03;;;17.60;99.90;;;;;;4998922;28;20189;-67
2022/09/26 00:52:45;;;;;;;4.90;2.03;;;17.60;99.90;;;;;;4989621;28;20193;-67
2022/09/26 00:55:18;;;;;;;4.93;2.10;;;17.60;99.90;;;;;;4995997;28;20254;-67
2022/09/26 00:57:57;;;;;;;3.10;1.90;;;17.60;99.90;;;;;;5010091;28;20629;-67
2022/09/26 01:00:24;;;;;;;3.60;1.93;;;17.60;99.90;;;;;;5004837;28;20197;-67
2022/09/26 01:02:52;;;;;;;3.87;2.37;;;17.60;99.90;;;;;;5006791;28;20282;-67
2022/09/26 01:05:22;;;;;;;2.50;1.87;;;17.60;99.90;;;;;;5003850;28;20236;-67
2022/09/26 01:07:51;;;;;;;4.53;2.20;;;17.60;99.90;;;;;;5009009;28;20192;-67
2022/09/26 01:10:17;;;;;;;3.23;2.00;;;17.60;99.90;;;;;;5004748;28;20587;-67
2022/09/26 01:12:44;;;;;;;2.63;1.83;;;17.60;99.90;;;;;;4987222;28;20228;-65
2022/09/26 01:15:11;;;;;;;2.80;1.90;;;17.60;99.90;;;;;;4989686;28;20341;-67
2022/09/26 01:17:42;;;;;;;4.47;2.17;;;17.60;99.90;;;;;;5001067;28;20232;-67
2022/09/26 01:20:32;;;;;;;2.87;1.77;;;17.50;99.90;;;;;;5009000;28;20196;-67
2022/09/26 01:23:13;;;;;;;7.10;2.10;;;17.50;99.90;;;;;;5010645;28;20582;-67
2022/09/26 01:25:51;;;;;;;3.10;2.30;;;17.50;99.90;;;;;;5008008;28;20216;-67
2022/09/26 01:28:32;;;;;;;3.10;2.10;;;17.50;99.90;;;;;;4996231;28;20585;-67
2022/09/26 01:31:29;;;;;;;3.43;2.03;;;17.50;99.90;;;;;;5009901;28;20188;-67
2022/09/26 01:34:31;;;;;;;4.47;1.80;;;17.50;99.90;;;;;;5002893;28;20252;-67
2022/09/26 01:37:36;;;;;;;5.00;2.20;;;17.50;99.90;;;;;;4990293;28;20197;-67
2022/09/26 01:40:15;;;;;;;3.30;1.90;;;17.50;99.90;;;;;;5009060;28;20184;-67
2022/09/26 01:42:54;;;;;;;4.63;2.07;;;17.50;99.90;;;;;;5006026;28;20192;-67
2022/09/26 01:45:27;;;;;;;2.80;2.10;;;17.50;99.90;;;;;;4996392;28;20574;-67
2022/09/26 01:48:18;;;;;;;6.13;2.10;;;17.50;99.90;;;;;;5010609;28;20247;-67
2022/09/26 01:51:01;;;;;;;2.20;2.00;;;17.40;99.90;;;;;;5008456;28;20189;-67
2022/09/26 01:53:51;;;;;;;5.10;2.10;;;17.40;99.90;;;;;;5009693;28;20318;-67
2022/09/26 01:56:25;;;;;;;4.00;2.00;;;17.40;99.90;;;;;;4997405;28;20323;-67
2022/09/26 01:59:06;;;;;;;4.20;2.10;;;17.40;99.90;;;;;;4975229;28;20182;-67
2022/09/26 02:01:41;;;;;;;3.90;2.10;;;17.40;99.90;;;;;;5001972;28;20260;-67
2022/09/26 02:04:20;;;;;;;2.37;2.17;;;17.40;99.90;;;;;;5012315;28;20200;-67
2022/09/26 02:07:17;;;;;;;3.47;1.93;;;17.30;99.90;;;;;;5012636;28;20181;-67
2022/09/26 02:10:05;;;;;;;3.77;1.80;;;17.30;99.90;;;;;;5009310;28;20654;-66
2022/09/26 02:12:38;;;;;;;6.73;1.87;;;17.30;99.90;;;;;;4995348;28;20267;-67
2022/09/26 02:15:15;;;;;;;2.83;2.03;;;17.40;99.90;;;;;;5012229;28;20223;-67
2022/09/26 02:17:49;;;;;;;3.93;2.00;;;17.30;99.90;;;;;;5011126;28;20186;-66
2022/09/26 02:20:30;;;;;;;5.67;2.07;;;17.30;99.90;;;;;;5003057;28;20724;-67
2022/09/26 02:22:59;;;;;;;4.93;2.10;;;17.30;99.90;;;;;;5013215;28;20875;-67
2022/09/26 02:25:27;;;;;;;3.73;2.10;;;17.30;99.90;;;;;;5009611;28;20221;-67
2022/09/26 02:27:56;;;;;;;2.37;2.00;;;17.20;99.90;;;;;;5011859;28;20231;-67
2022/09/26 02:30:23;;;;;;;2.87;2.00;;;17.20;99.90;;;;;;5005935;28;20185;-67
2022/09/26 02:32:50;;;;;;;3.27;2.00;;;17.10;99.90;;;;;;5010702;28;20663;-66
2022/09/26 02:38:04;;;;;;;6.40;2.40;;;17.10;99.90;;;;;;5010994;28;20189;-67
2022/09/26 02:41:00;;;;;;;4.13;2.03;;;17.20;99.90;;;;;;5010471;28;20189;-67
2022/09/26 02:44:14;;;;;;;4.43;2.30;;;17.20;99.90;;;;;;5007200;28;20371;-67
2022/09/26 02:47:36;;;;;;;2.83;2.30;;;17.20;99.90;;;;;;4932104;29;20199;-67
2022/09/26 02:50:11;;;;;;;4.17;1.90;;;17.30;99.90;;;;;;5010406;28;20727;-67
2022/09/26 02:53:16;;;;;;;3.40;2.17;;;17.30;99.90;;;;;;4992434;28;21072;-67
2022/09/26 02:56:09;;;;;;;9.23;2.47;;;17.30;99.90;;;;;;4990948;28;20189;-67
2022/09/26 02:59:23;;;;;;;2.37;1.83;;;17.30;99.90;;;;;;5030057;28;20197;-67
2022/09/26 03:02:05;;;;;;;3.83;2.03;;;17.30;99.90;;;;;;5015231;28;20270;-67
2022/09/26 03:05:01;;;;;;;2.70;1.80;;;17.30;99.90;;;;;;5014418;28;20226;-67
2022/09/26 03:07:40;;;;;;;3.57;2.40;;;17.30;99.90;;;;;;5008761;28;20181;-67
2022/09/26 03:10:10;;;;;;;3.17;2.13;;;17.30;99.90;;;;;;5011573;28;20216;-66
2022/09/26 03:12:39;;;;;;;3.60;2.10;;;17.30;99.90;;;;;;5009926;28;20239;-67
2022/09/26 03:15:09;;;;;;;4.87;2.17;;;17.30;99.90;;;;;;5021949;28;20547;-66
2022/09/26 03:17:46;;;;;;;2.57;1.90;;;17.30;99.90;;;;;;5008266;28;20642;-67
2022/09/26 03:20:21;;;;;;;3.93;2.00;;;17.30;99.90;;;;;;5011056;28;20254;-67
2022/09/26 03:22:49;;;;;;;2.83;2.10;;;17.30;99.90;;;;;;5026166;28;20184;-67
2022/09/26 03:25:24;;;;;;;7.17;2.20;;;17.30;99.90;;;;;;5019265;28;20224;-66
2022/09/26 03:27:52;;;;;;;4.10;2.00;;;17.30;99.90;;;;;;5007453;28;20200;-67
2022/09/26 03:30:21;;;;;;;2.30;1.80;;;17.20;99.90;;;;;;5010704;28;20188;-66
2022/09/26 03:32:48;;;;;;;6.60;2.03;;;17.20;99.90;;;;;;5014214;28;20626;-65
2022/09/26 03:35:15;;;;;;;4.93;2.27;;;17.10;99.90;;;;;;5011001;28;20259;-67
2022/09/26 03:37:41;;;;;;;2.63;1.70;;;17.10;99.90;;;;;;5008068;28;20248;-67
2022/09/26 03:40:11;;;;;;;3.77;1.90;;;17.10;99.90;;;;;;5003543;28;20192;-65
2022/09/26 03:42:38;;;;;;;6.67;1.70;;;17.00;99.90;;;;;;5011013;28;20197;-66
2022/09/26 03:45:12;;;;;;;2.20;2.00;;;17.00;99.90;;;;;;4998018;28;20224;-66
2022/09/26 03:47:40;;;;;;;2.53;1.87;;;17.00;99.90;;;;;;5001517;28;20204;-67
2022/09/26 03:50:07;;;;;;;3.30;1.93;;;16.90;99.90;;;;;;5010887;28;20220;-67
2022/09/26 03:52:35;;;;;;;3.67;2.13;;;16.90;99.90;;;;;;4993104;28;20284;-67
2022/09/26 03:55:01;;;;;;;4.27;1.80;;;16.90;99.90;;;;;;5013451;28;20205;-67
2022/09/26 03:57:27;;;;;;;3.97;1.80;;;16.90;99.90;;;;;;5024223;28;20544;-67
2022/09/26 03:59:57;;;;;;;3.93;2.13;;;16.90;99.90;;;;;;5008854;28;20192;-67
2022/09/26 04:02:23;;;;;;;4.00;1.90;;;16.90;99.90;;;;;;5001591;28;20197;-67
2022/09/26 04:04:50;;;;;;;4.43;1.90;;;16.90;99.90;;;;;;5002649;28;20213;-67
2022/09/26 04:07:16;;;;;;;2.00;1.80;;;16.80;99.90;;;;;;5026021;28;20189;-67
2022/09/26 04:09:43;;;;;;;5.43;2.10;;;16.70;99.90;;;;;;5006190;28;20193;-67
2022/09/26 04:12:09;;;;;;;6.60;2.20;;;16.70;99.90;;;;;;5010478;28;20184;-67
2022/09/26 04:14:35;;;;;;;3.93;1.80;;;16.70;99.90;;;;;;5010397;28;20230;-67
2022/09/26 04:17:02;;;;;;;9.07;2.50;;;16.70;99.90;;;;;;5012669;28;20657;-67
2022/09/26 04:19:28;;;;;;;2.10;1.90;;;16.70;99.90;;;;;;4992993;28;20212;-67
2022/09/26 04:21:54;;;;;;;4.43;1.97;;;16.70;99.90;;;;;;5010294;28;20196;-66
2022/09/26 04:24:21;;;;;;;4.13;2.00;;;16.70;99.90;;;;;;5011843;28;20228;-67
2022/09/26 04:26:47;;;;;;;3.73;1.90;;;16.70;99.90;;;;;;5010191;28;20185;-66
2022/09/26 04:29:14;;;;;;;4.60;2.07;;;16.70;99.90;;;;;;5010355;28;20220;-66
2022/09/26 04:31:40;;;;;;;2.30;2.00;;;16.70;99.90;;;;;;4977972;28;20196;-67
2022/09/26 04:34:10;;;;;;;2.10;1.80;;;16.70;99.90;;;;;;5010070;28;20621;-67
2022/09/26 04:36:37;;;;;;;2.70;1.70;;;16.70;99.90;;;;;;5006203;28;20196;-67
2022/09/26 04:39:04;;;;;;;2.60;1.83;;;16.70;99.90;;;;;;5002692;28;20315;-67
2022/09/26 04:41:31;;;;;;;5.93;2.37;;;16.60;99.90;;;;;;4989993;28;20288;-67
2022/09/26 04:43:59;;;;;;;3.50;2.00;;;16.60;99.90;;;;;;4980443;28;20228;-67
2022/09/26 04:46:28;;;;;;;4.50;2.13;;;16.70;99.90;;;;;;5011685;28;20177;-67
2022/09/26 04:48:56;;;;;;;4.63;2.00;;;16.70;99.90;;;;;;4994355;28;20192;-67
2022/09/26 04:51:25;;;;;;;4.57;2.40;;;16.70;99.90;;;;;;5013984;28;20188;-67
2022/09/26 04:53:52;;;;;;;3.13;1.90;;;16.70;99.90;;;;;;5013900;28;20189;-67
2022/09/26 04:56:22;;;;;;;2.87;1.80;;;16.70;99.90;;;;;;5012859;28;20195;-67
2022/09/26 04:58:50;;;;;;;5.23;2.07;;;16.70;99.90;;;;;;5008741;28;20208;-67
2022/09/26 05:01:19;;;;;;;6.10;1.83;;;16.80;99.90;;;;;;5012783;28;20284;-67
2022/09/26 05:03:47;;;;;;;3.73;1.93;;;16.80;99.90;;;;;;5013419;28;20215;-67
2022/09/26 05:06:16;;;;;;;3.13;2.00;;;16.90;99.90;;;;;;5028836;28;20231;-67
2022/09/26 05:08:46;;;;;;;4.17;1.70;;;17.00;99.90;;;;;;5012277;28;20201;-67
2022/09/26 05:11:15;;;;;;;3.23;1.90;;;17.10;99.90;;;;;;4994791;28;20219;-67
2022/09/26 05:13:44;;;;;;;4.33;1.73;;;17.20;99.90;;;;;;5009959;28;21992;-67
2022/09/26 05:16:13;;;;;;;3.27;1.97;;;17.20;99.90;;;;;;5016649;28;20189;-67
2022/09/26 05:18:40;;;;;;;4.87;1.97;;;17.30;99.90;;;;;;4995743;28;20286;-67
2022/09/26 05:21:07;;;;;;;3.20;1.87;;;17.40;99.90;;;;;;5010699;28;20176;-67
2022/09/26 05:26:48;;;;;;;2.27;1.83;;;17.60;99.90;;;;;;5013468;28;20177;-67
2022/09/26 05:29:15;;;;;;;2.53;1.80;;;17.70;99.90;;;;;;5013098;28;20184;-67
2022/09/26 05:31:42;;;;;;;6.90;1.80;;;17.80;99.90;;;;;;5013087;28;20184;-66
2022/09/26 05:34:12;;;;;;;3.23;1.83;;;17.90;99.90;;;;;;5010665;28;20197;-67
2022/09/26 05:36:41;;;;;;;3.73;2.07;;;18.00;99.90;;;;;;5010770;28;20223;-65
2022/09/26 05:41:53;;;;;;;3.47;1.90;;;18.00;99.90;;;;;;5011033;28;20197;-67
2022/09/26 05:44:20;;;;;;;3.97;1.80;;;18.10;99.90;;;;;;5018948;28;20266;-67
2022/09/26 05:46:50;;;;;;;2.47;2.00;;;18.20;99.90;;;;;;4994924;28;20251;-67
2022/09/26 05:49:16;;;;;;;2.00;1.57;;;18.20;99.90;;;;;;5013960;28;20193;-67
2022/09/26 05:51:43;;;;;;;4.03;2.17;;;18.30;99.90;;;;;;5010011;28;20189;-64
2022/09/26 05:54:09;;;;;;;2.90;1.53;;;18.40;99.90;;;;;;5015376;28;20212;-67
2022/09/26 05:56:36;;;;;;;3.27;2.00;;;18.50;99.90;;;;;;5012434;28;20259;-67
2022/09/26 05:59:04;;;;;;;3.03;1.70;;;18.50;99.90;;;;;;4994659;28;20192;-65
2022/09/26 06:01:32;;;;;;;4.17;1.97;;;18.60;99.90;;;;;;5013170;28;20216;-65
2022/09/26 06:03:59;;;;;;;7.47;1.80;;;18.70;99.90;;;;;;5014324;28;20701;-67
2022/09/26 06:06:25;;;;;;;4.77;1.60;;;18.70;99.90;;;;;;4992946;28;20196;-65
2022/09/26 06:08:51;;;;;;;3.47;1.70;;;18.80;99.90;;;;;;4974402;28;20182;-64
2022/09/26 06:11:21;;;;;;;4.13;2.00;;;18.90;99.90;;;;;;5014677;28;20199;-64
2022/09/26 06:13:48;;;;;;;7.27;1.87;;;18.90;99.90;;;;;;5012233;28;20631;-67
2022/09/26 06:16:19;;;;;;;2.53;1.70;;;19.00;99.90;;;;;;5011048;28;20254;-65
2022/09/26 06:18:49;;;;;;;4.77;1.80;;;19.00;99.90;;;;;;4977557;28;20204;-66
2022/09/26 06:21:19;;;;;;;6.13;1.83;;;19.10;99.90;;;;;;5010718;28;20224;-67
2022/09/26 06:23:45;;;;;;;3.33;1.90;;;19.10;99.90;;;;;;5008960;28;20216;-64
2022/09/26 06:26:24;;;;;;;4.20;2.00;;;19.20;99.90;;;;;;5015840;28;20867;-65
2022/09/26 06:28:56;;;;;;;1.93;1.70;;;19.30;99.90;;;;;;5002929;28;20185;-66
2022/09/26 06:31:25;;;;;;;5.37;2.00;;;19.40;99.90;;;;;;5009633;28;20276;-67
2022/09/26 06:33:54;;;;;;;4.83;2.13;;;19.40;99.90;;;;;;4997889;28;20212;-67
2022/09/26 06:36:24;;;;;;;2.73;1.70;;;19.50;99.90;;;;;;5011926;28;20189;-65
2022/09/26 06:38:54;;;;;;;6.13;1.70;;;19.60;99.90;;;;;;5007670;28;20652;-65
2022/09/26 06:41:21;;;;;;;3.57;1.80;;;19.70;99.90;;;;;;5014180;28;20185;-65
2022/09/26 06:43:47;;;;;;;3.60;1.80;;;19.90;99.90;;;;;;5011710;28;20209;-66
2022/09/26 06:46:15;;;;;;;5.53;2.07;;;20.10;99.90;;;;;;5006806;28;20219;-64
2022/09/26 06:48:41;;;;;;;4.80;1.63;;;20.30;99.90;;;;;;5001203;28;20264;-65
2022/09/26 06:51:12;;;;;;;3.20;1.90;;;20.40;99.90;;;;;;5011687;28;20271;-65
2022/09/26 06:53:39;;;;;;;4.80;1.93;;;20.40;99.90;;;;;;5011534;28;20181;-65
2022/09/26 06:56:05;;;;;;;4.03;1.73;;;20.60;99.90;;;;;;5011858;28;20203;-65
2022/09/26 06:58:33;;;;;;;3.03;1.83;;;20.70;99.90;;;;;;5012584;28;20184;-65
2022/09/26 07:01:02;;;;;;;4.87;1.70;;;20.70;99.90;;;;;;5009091;28;20259;-65
2022/09/26 07:03:29;;;;;;;3.77;1.70;;;20.80;99.90;;;;;;5007495;28;20200;-65
2022/09/26 07:05:58;;;;;;;1.90;1.60;;;20.90;99.90;;;;;;5010609;28;20197;-66
2022/09/26 07:08:25;;;;;;;3.50;1.70;;;21.00;99.90;;;;;;4996174;28;20200;-66
2022/09/26 07:10:52;;;;;;;2.70;1.40;;;21.10;99.90;;;;;;5011137;28;20185;-66
2022/09/26 07:13:19;;;;;;;7.32;1.80;;;21.10;99.90;;;;;;4993520;28;20223;-66
2022/09/26 07:15:46;;;;;;;3.92;1.80;;;21.10;99.90;;;;;;5010120;28;20259;-66
2022/09/26 07:18:16;;;;;;;7.00;1.83;;;21.20;99.90;;;;;;5001549;28;20185;-65
2022/09/26 07:20:45;;;;;;;3.20;1.80;;;21.30;99.90;;;;;;5026251;28;20199;-66
2022/09/26 07:23:13;;;;;;;2.37;1.50;;;21.40;99.90;;;;;;5009652;28;20196;-66
2022/09/26 07:25:43;;;;;;;3.83;1.87;;;21.50;99.90;;;;;;5010556;28;20213;-66
2022/09/26 07:28:09;;;;;;;7.22;2.20;;;21.60;99.90;;;;;;5010738;28;20192;-66
2022/09/26 07:30:36;;;;;;;4.78;1.95;;;21.70;99.90;;;;;;5010729;28;20193;-66
2022/09/26 07:33:04;;;;;;;8.15;2.22;;;21.80;99.90;;;;;;5011887;28;20279;-66
2022/09/26 07:35:34;;;;;;;6.10;2.00;;;21.80;99.90;;;;;;5000361;28;20207;-66
2022/09/26 07:38:01;;;;;;;2.28;1.55;;;22.00;99.90;;;;;;5010934;28;20189;-67
2022/09/26 07:40:28;;;;;;;5.72;1.77;;;22.00;99.90;;;;;;5025825;28;20189;-67
2022/09/26 07:43:02;;;;;;;7.25;1.77;;;22.10;99.90;;;;;;5010282;28;20197;-67
2022/09/26 07:51:00;;;;;;;4.93;2.05;;;22.60;99.90;;;;;;5004981;28;20180;-67
2022/09/26 07:53:27;;;;;;;7.30;1.95;;;22.60;99.90;;;;;;4992463;28;20176;-67
2022/09/26 07:56:09;;;;;;;4.20;1.80;;;22.70;99.90;;;;;;4991697;28;20200;-67
2022/09/26 07:58:43;;;;;;;4.50;1.80;;;22.80;99.90;;;;;;5010381;28;20199;-67
2022/09/26 08:01:15;;;;;;;4.45;1.67;;;22.80;99.90;;;;;;5010517;28;20187;-66
2022/09/26 08:03:46;;;;;;;3.63;1.65;;;22.80;99.90;;;;;;4997016;28;20224;-67
2022/09/26 08:06:16;;;;;;;4.13;1.48;;;23.00;99.90;;;;;;4993941;28;20273;-67
2022/09/26 08:08:42;;;;;;;4.68;1.98;;;23.10;99.90;;;;;;4989746;28;20209;-67
2022/09/26 08:11:18;;;;;;;5.00;1.63;;;23.10;99.90;;;;;;5007925;28;20260;-65
2022/09/26 08:13:45;;;;;;;5.28;1.65;;;23.20;99.90;;;;;;5003716;28;20200;-65
2022/09/26 08:16:21;;;;;;;3.88;1.55;;;23.30;99.90;;;;;;5001814;28;20217;-66
2022/09/26 08:18:50;;;;;;;6.18;2.05;;;23.30;99.90;;;;;;5010572;28;20592;-65
2022/09/26 08:21:16;;;;;;;2.83;1.73;;;23.50;99.90;;;;;;4990143;28;20601;-66
2022/09/26 08:23:43;;;;;;;4.35;1.80;;;23.60;99.90;;;;;;5006618;28;20259;-66
2022/09/26 08:26:10;;;;;;;6.05;1.77;;;23.70;99.90;;;;;;5020786;28;20196;-67
2022/09/26 08:28:37;;;;;;;3.80;1.67;;;23.70;99.90;;;;;;5008405;28;20192;-66
2022/09/26 08:31:05;;;;;;;3.83;1.88;;;23.80;99.90;;;;;;5009901;28;20280;-66
2022/09/26 08:33:35;;;;;;;3.28;1.58;;;23.90;99.90;;;;;;5000064;28;20189;-66
2022/09/26 08:36:08;;;;;;;10.73;1.90;;;24.10;99.90;;;;;;5010888;28;20197;-67
2022/09/26 08:38:35;;;;;;;5.43;1.83;;;24.00;99.90;;;;;;5008988;28;20189;-66
2022/09/26 08:41:36;;;;;;;7.38;2.05;;;24.00;99.90;;;;;;5009791;28;20187;-66
2022/09/26 08:44:59;;;;;;;3.45;1.60;;;24.10;99.90;;;;;;4972331;28;20352;-66
2022/09/26 08:47:53;;;;;;;4.45;2.00;;;24.30;99.90;;;;;;4983240;28;20211;-66
2022/09/26 08:51:00;;;;;;;5.70;1.80;;;24.20;99.90;;;;;;5009389;28;20635;-67
2022/09/26 08:53:49;;;;;;;6.43;1.90;;;24.20;99.90;;;;;;5003011;28;20247;-66
2022/09/26 08:56:30;;;;;;;5.80;1.70;;;24.40;99.90;;;;;;5019894;28;20195;-67
2022/09/26 08:59:02;;;;;;;4.63;1.88;;;24.40;99.90;;;;;;5010671;28;20192;-67
2022/09/26 09:01:38;;;;;;;5.13;1.77;;;24.50;99.90;;;;;;5011053;28;20181;-67
2022/09/26 09:04:40;;;;;;;9.13;1.98;;;24.60;99.90;;;;;;5007261;28;20204;-67
2022/09/26 09:07:25;;;;;;;4.32;1.90;;;24.70;99.90;;;;;;4997017;28;20219;-67
2022/09/26 09:10:02;;;;;;;3.58;1.60;;;24.80;99.90;;;;;;5006891;28;20274;-67
2022/09/26 09:13:08;;;;;;;2.67;1.50;;;24.80;99.90;;;;;;4974545;28;20187;-67
2022/09/26 09:16:06;;;;;;;4.95;1.60;;;24.90;99.90;;;;;;4991461;28;20302;-67
2022/09/26 09:19:01;;;;;;;5.30;1.60;;;25.10;99.90;;;;;;4994537;28;20271;-67
2022/09/26 09:21:56;;;;;;;4.18;1.60;;;25.40;99.90;;;;;;5012841;28;20250;-66
2022/09/26 09:24:53;;;;;;;11.65;2.10;;;25.60;99.90;;;;;;4986285;28;20216;-66
2022/09/26 09:27:46;;;;;;;4.88;1.65;;;25.80;99.90;;;;;;5007293;28;20641;-66
2022/09/26 09:30:42;;;;;;;5.07;1.55;;;26.00;99.90;;;;;;5008900;28;20667;-66
2022/09/26 09:33:27;;;;;;;5.57;1.67;;;26.60;99.90;;;;;;5004650;28;20198;-67
2022/09/26 09:36:08;;;;;;;2.13;1.27;;;26.80;99.90;;;;;;5003943;28;20280;-67
2022/09/26 09:38:41;;;;;;;4.68;1.60;;;26.90;99.90;;;;;;4993905;28;20185;-67
2022/09/26 09:41:14;;;;;;;3.28;1.58;;;26.80;99.90;;;;;;5009609;28;20200;-65
2022/09/26 09:43:51;;;;;;;4.88;1.60;;;26.80;99.90;;;;;;5010848;28;20180;-66
2022/09/26 09:46:27;;;;;;;2.90;1.40;;;26.90;99.90;;;;;;5018611;28;20191;-65
2022/09/26 09:49:20;;;;;;;3.92;1.85;;;27.20;99.90;;;;;;4998878;28;20196;-66
2022/09/26 09:52:18;;;;;;;2.35;1.58;;;27.20;99.90;;;;;;4994901;28;20189;-66
2022/09/26 09:55:04;;;;;;;2.30;1.50;;;27.30;99.90;;;;;;5009022;28;20900;-65
2022/09/26 09:57:50;;;;;;;3.35;1.45;;;27.10;99.90;;;;;;4997268;28;20192;-65
2022/09/26 10:00:26;;;;;;;5.43;1.50;;;26.90;99.90;;;;;;4993226;28;20255;-65
2022/09/26 10:03:17;;;;;;;4.18;1.90;;;27.00;99.90;;;;;;5012532;28;20242;-65
2022/09/26 10:05:52;;;;;;;5.10;1.83;;;27.20;99.90;;;;;;5017618;28;20645;-66
2022/09/26 10:08:30;;;;;;;3.60;1.60;;;27.20;99.90;;;;;;5008089;28;20272;-65
2022/09/26 10:11:13;;;;;;;3.70;1.42;;;27.40;99.90;;;;;;5012605;28;20562;-65
2022/09/26 10:13:42;;;;;;;3.90;1.60;;;27.70;99.90;;;;;;4990859;28;20185;-65
2022/09/26 10:16:13;;;;;;;2.83;1.60;;;27.80;99.90;;;;;;5010987;28;20304;-66
2022/09/26 10:19:07;;;;;;;5.70;1.40;;;27.90;99.90;;;;;;5001307;28;20207;-66
2022/09/26 10:21:40;;;;;;;6.68;1.65;;;28.10;99.90;;;;;;5000213;28;20185;-65
2022/09/26 10:24:42;;;;;;;4.38;1.52;;;29.10;99.90;;;;;;5009848;28;20205;-66
2022/09/26 10:27:33;;;;;;;5.30;1.80;;;29.10;99.90;;;;;;4993884;28;20819;-65
2022/09/26 10:30:05;;;;;;;4.55;1.50;;;28.50;99.90;;;;;;5012120;28;20232;-65
2022/09/26 10:32:45;;;;;;;3.13;1.70;;;28.20;99.90;;;;;;5009833;28;20182;-66
2022/09/26 10:35:28;;;;;;;3.72;1.60;;;27.80;99.90;;;;;;4989929;28;20187;-66
2022/09/26 10:38:06;;;;;;;2.08;1.40;;;27.90;99.90;;;;;;4989315;28;20203;-66
2022/09/26 10:40:45;;;;;;;3.30;1.42;;;27.90;99.90;;;;;;4987571;28;20527;-66
2022/09/26 10:43:29;;;;;;;4.15;1.63;;;28.00;99.90;;;;;;5011382;28;20669;-66
2022/09/26 10:46:13;;;;;;;3.88;1.70;;;30.00;99.90;;;;;;5011779;28;20208;-66
2022/09/26 10:48:52;;;;;;;3.45;1.60;;;28.80;99.90;;;;;;5009553;28;20224;-66
2022/09/26 10:52:03;;;;;;;4.45;1.70;;;27.50;99.90;;;;;;5010894;28;20209;-66
2022/09/26 10:54:45;;;;;;;2.88;1.50;;;27.10;99.90;;;;;;5011149;28;20181;-66
2022/09/26 10:57:32;;;;;;;1.88;1.40;;;27.00;99.90;;;;;;4977794;28;20173;-66
2022/09/26 11:00:05;;;;;;;3.53;1.80;;;26.80;99.90;;;;;;5009732;28;20181;-66
2022/09/26 11:02:37;;;;;;;4.40;1.70;;;26.80;99.90;;;;;;5010936;28;20181;-66
2022/09/26 11:07:52;;;;;;;4.45;1.70;;;26.90;99.90;;;;;;5002892;28;20177;-66
2022/09/26 11:10:31;;;;;;;4.57;1.50;;;26.90;99.90;;;;;;4989339;28;20185;-67
2022/09/26 11:13:22;;;;;;;6.18;1.52;;;26.90;99.90;;;;;;5009820;28;20235;-67
2022/09/26 11:16:14;;;;;;;4.70;1.67;;;26.80;99.90;;;;;;5011428;28;20263;-65
2022/09/26 11:19:20;;;;;;;4.88;1.50;;;26.80;99.90;;;;;;4989530;28;20725;-66
2022/09/26 11:22:10;;;;;;;2.63;1.40;;;26.80;99.90;;;;;;5009893;28;20204;-66
2022/09/26 11:25:14;;;;;;;2.17;1.50;;;26.80;99.90;;;;;;5008769;28;20298;-66
2022/09/26 11:28:08;;;;;;;4.43;1.35;;;26.80;99.90;;;;;;4998717;28;20234;-67
2022/09/26 11:30:45;;;;;;;3.47;1.75;;;26.70;99.90;;;;;;5010387;28;20665;-66
2022/09/26 11:33:17;;;;;;;7.03;1.70;;;26.80;99.90;;;;;;5004842;28;20244;-66
2022/09/26 11:36:00;;;;;;;3.08;1.40;;;26.80;99.90;;;;;;5001133;28;20181;-67
2022/09/26 11:39:37;;;;;;;3.88;1.30;;;26.70;99.90;;;;;;5010731;28;20204;-67
2022/09/26 11:42:35;;;;;;;15.93;2.00;;;26.60;99.90;;;;;;4993913;28;20639;-66
2022/09/26 11:45:28;;;;;;;3.17;1.70;;;26.60;99.90;;;;;;5003623;28;20220;-67
2022/09/26 11:48:38;;;;;;;4.53;1.70;;;26.70;99.90;;;;;;5010519;28;20181;-66
2022/09/26 11:51:04;;;;;;;5.70;1.85;;;26.70;99.90;;;;;;4992521;28;20193;-67
2022/09/26 11:53:49;;;;;;;5.80;1.98;;;26.70;99.90;;;;;;5010150;28;20195;-67
2022/09/26 11:56:42;;;;;;;5.85;1.30;;;26.60;99.90;;;;;;5002928;28;20619;-67
2022/09/26 11:59:48;;;;;;;2.75;1.55;;;26.60;99.90;;;;;;5004779;28;20181;-66
2022/09/26 12:02:39;;;;;;;1.60;1.20;;;26.70;99.90;;;;;;5003894;28;20289;-66
2022/09/26 12:05:47;;;;;;;3.05;1.52;;;26.60;99.90;;;;;;4990855;28;20737;-66
2022/09/26 12:08:59;;;;;;;2.92;1.65;;;26.60;99.90;;;;;;5007417;28;20197;-67
2022/09/26 12:11:55;;;;;;;3.05;1.52;;;26.60;99.90;;;;;;4999146;28;20216;-67
2022/09/26 12:15:07;;;;;;;4.53;1.60;;;26.70;99.90;;;;;;4985855;28;20697;-67
2022/09/26 12:18:03;;;;;;;3.30;1.58;;;26.70;99.90;;;;;;5009659;28;20177;-67
2022/09/26 12:21:00;;;;;;;4.28;1.45;;;26.70;99.90;;;;;;5005224;28;20605;-67
2022/09/26 12:23:49;;;;;;;4.80;1.77;;;26.60;99.90;;;;;;4976184;28;20184;-66
2022/09/26 12:26:54;;;;;;;2.20;1.55;;;26.60;99.90;;;;;;5009529;28;20280;-67
2022/09/26 12:29:31;;;;;;;3.45;1.40;;;26.40;99.90;;;;;;4984592;28;20193;-67
2022/09/26 12:32:34;;;;;;;2.35;1.48;;;26.30;99.90;;;;;;5010110;28;20193;-67
2022/09/26 12:35:28;;;;;;;8.57;1.58;;;26.30;99.90;;;;;;5004504;28;20610;-66
2022/09/26 12:38:23;;;;;;;6.40;1.65;;;26.30;99.90;;;;;;5005369;28;20274;-67
2022/09/26 12:41:26;;;;;;;5.25;1.25;;;26.20;99.90;;;;;;4999540;28;20334;-66
2022/09/26 12:44:10;;;;;;;3.88;1.73;;;26.10;99.90;;;;;;5008249;28;20258;-66
2022/09/26 12:46:47;;;;;;;3.13;1.33;;;26.10;99.90;;;;;;4996214;28;20190;-67
2022/09/26 12:49:38;;;;;;;2.65;1.50;;;26.20;99.90;;;;;;5000687;28;20204;-67
2022/09/26 12:52:20;;;;;;;1.88;1.20;;;26.20;99.90;;;;;;5002817;28;20200;-66
2022/09/26 12:55:06;;;;;;;3.72;1.60;;;26.30;99.90;;;;;;5007153;28;20201;-67
2022/09/26 12:58:42;;;;;;;7.57;1.85;;;26.10;99.90;;;;;;5013155;28;20272;-67
2022/09/26 13:01:54;;;;;;;130.05;7.18;;;26.10;99.90;;;;;;5020644;28;20185;-66
2022/09/26 13:04:51;;;;;;;3.10;1.50;;;26.20;99.90;;;;;;5008177;28;20567;-66
2022/09/26 13:07:41;;;;;;;2.38;1.58;;;26.10;99.90;;;;;;5007872;28;20181;-66
2022/09/26 13:10:47;;;;;;;10.07;1.75;;;26.00;99.90;;;;;;5007495;28;20193;-66
2022/09/26 13:14:06;;;;;;;3.22;1.50;;;26.00;99.90;;;;;;4992056;28;20205;-66
2022/09/26 13:17:13;;;;;;;3.78;1.55;;;25.90;99.90;;;;;;5012721;28;20247;-67
2022/09/26 13:20:00;;;;;;;3.88;1.85;;;25.90;99.90;;;;;;5019723;28;20209;-67
2022/09/26 13:22:44;;;;;;;4.13;1.40;;;25.90;99.90;;;;;;5011031;28;20189;-66
2022/09/26 13:25:17;;;;;;;2.00;1.40;;;25.90;99.90;;;;;;5009672;28;20213;-67
2022/09/26 13:28:03;;;;;;;2.17;1.45;;;25.90;99.90;;;;;;5005788;28;20220;-65
2022/09/26 13:30:40;;;;;;;2.28;1.48;;;25.90;99.90;;;;;;4984998;28;20195;-65
2022/09/26 13:33:40;;;;;;;5.22;1.63;;;25.80;99.90;;;;;;5010019;28;20189;-66
2022/09/26 13:36:11;;;;;;;3.63;1.65;;;25.70;99.90;;;;;;5008125;28;20192;-65
2022/09/26 13:38:55;;;;;;;3.45;1.50;;;25.70;99.90;;;;;;4995535;28;20193;-65
2022/09/26 13:41:49;;;;;;;7.63;1.60;;;25.70;99.90;;;;;;4996159;28;20990;-65
2022/09/26 13:44:38;;;;;;;2.97;1.27;;;25.60;99.90;;;;;;5016243;28;20287;-65
2022/09/26 13:47:29;;;;;;;1.98;1.60;;;25.50;99.90;;;;;;5012821;28;20263;-64
2022/09/26 13:50:04;;;;;;;2.55;1.38;;;25.50;99.90;;;;;;5013051;28;20177;-67
2022/09/26 13:53:05;;;;;;;3.25;1.65;;;25.50;99.90;;;;;;5011457;28;20208;-64
2022/09/26 13:55:34;;;;;;;6.13;1.52;;;25.40;99.90;;;;;;5012046;28;20268;-67
2022/09/26 13:58:19;;;;;;;6.47;1.58;;;25.40;99.90;;;;;;5006031;28;20574;-67
2022/09/26 14:00:53;;;;;;;3.08;1.33;;;25.30;99.90;;;;;;5012592;28;20185;-64